createdAt,value
2022-09-06T00:00:40.495Z,18.00
2022-09-06T00:01:40.486Z,17.86
2022-09-06T00:02:40.528Z,17.82
2022-09-06T00:03:40.492Z,17.70
2022-09-06T00:04:40.485Z,17.71
2022-09-06T00:05:40.457Z,17.71
2022-09-06T00:06:40.447Z,17.59
2022-09-06T00:07:40.438Z,17.56
2022-09-06T00:08:40.427Z,17.45
2022-09-06T00:09:40.446Z,17.41
2022-09-06T00:10:40.414Z,17.38
2022-09-06T00:11:40.408Z,17.44
2022-09-06T00:12:40.407Z,17.38
2022-09-06T00:13:40.394Z,17.33
2022-09-06T00:14:40.413Z,17.31
2022-09-06T00:15:40.422Z,17.26
2022-09-06T00:16:40.373Z,17.23
2022-09-06T00:17:40.364Z,17.26
2022-09-06T00:18:40.355Z,17.24
2022-09-06T00:19:40.374Z,17.23
2022-09-06T00:20:40.341Z,17.06
2022-09-06T00:21:40.328Z,17.09
2022-09-06T00:22:40.322Z,17.06
2022-09-06T00:23:40.319Z,16.79
2022-09-06T00:24:40.339Z,16.83
2022-09-06T00:25:40.301Z,16.87
2022-09-06T00:26:40.290Z,16.84
2022-09-06T00:27:40.287Z,16.75
2022-09-06T00:28:40.275Z,16.79
2022-09-06T00:29:40.294Z,16.86
2022-09-06T00:30:40.333Z,16.74
2022-09-06T00:31:40.254Z,16.78
2022-09-06T00:32:40.244Z,16.72
2022-09-06T00:33:40.233Z,16.78
2022-09-06T00:34:40.254Z,16.69
2022-09-06T00:35:40.220Z,16.71
2022-09-06T00:36:40.211Z,16.78
2022-09-06T00:37:40.205Z,16.71
2022-09-06T00:38:40.200Z,16.72
2022-09-06T00:39:40.283Z,16.64
2022-09-06T00:40:40.190Z,16.57
2022-09-06T00:41:40.182Z,16.64
2022-09-06T00:42:40.169Z,16.61
2022-09-06T00:43:40.157Z,16.64
2022-09-06T00:44:40.176Z,16.47
2022-09-06T00:45:40.142Z,16.47
2022-09-06T00:46:40.222Z,16.51
2022-09-06T00:47:40.129Z,16.46
2022-09-06T00:48:40.124Z,16.42
2022-09-06T00:49:40.143Z,16.41
2022-09-06T00:50:40.108Z,16.47
2022-09-06T00:51:40.101Z,16.51
2022-09-06T00:52:40.095Z,16.46
2022-09-06T00:53:40.109Z,16.41
2022-09-06T00:54:40.079Z,16.47
2022-09-06T00:55:40.066Z,16.39
2022-09-06T00:56:40.063Z,16.43
2022-09-06T00:57:40.053Z,16.43
2022-09-06T00:58:40.075Z,16.46
2022-09-06T00:59:40.081Z,16.38
2022-09-06T01:00:40.035Z,16.38
2022-09-06T01:01:40.146Z,16.38
2022-09-06T01:02:40.093Z,16.38
2022-09-06T01:03:40.033Z,16.21
2022-09-06T01:04:39.999Z,16.29
2022-09-06T01:05:39.997Z,16.23
2022-09-06T01:06:39.981Z,16.17
2022-09-06T01:07:39.975Z,16.17
2022-09-06T01:08:39.994Z,16.26
2022-09-06T01:09:39.962Z,16.20
2022-09-06T01:10:39.951Z,16.12
2022-09-06T01:11:39.956Z,16.09
2022-09-06T01:12:39.943Z,16.10
2022-09-06T01:13:39.961Z,16.09
2022-09-06T01:14:39.927Z,16.13
2022-09-06T01:15:39.974Z,16.20
2022-09-06T01:16:39.911Z,16.12
2022-09-06T01:17:39.903Z,16.16
2022-09-06T01:18:39.916Z,16.10
2022-09-06T01:19:39.884Z,16.13
2022-09-06T01:20:39.876Z,16.13
2022-09-06T01:21:39.869Z,16.10
2022-09-06T01:22:39.856Z,16.02
2022-09-06T01:23:39.877Z,16.01
2022-09-06T01:24:39.846Z,15.97
2022-09-06T01:25:39.836Z,15.94
2022-09-06T01:26:39.827Z,16.08
2022-09-06T01:27:39.822Z,16.02
2022-09-06T01:28:39.846Z,16.04
2022-09-06T01:29:39.807Z,16.00
2022-09-06T01:30:39.842Z,15.97
2022-09-06T01:31:39.797Z,15.92
2022-09-06T01:32:39.788Z,15.94
2022-09-06T01:33:39.805Z,15.95
2022-09-06T01:34:39.772Z,15.82
2022-09-06T01:35:39.763Z,15.86
2022-09-06T01:36:49.694Z,15.84
2022-09-06T01:37:41.749Z,15.80
2022-09-06T01:38:39.775Z,15.88
2022-09-06T01:39:39.844Z,15.94
2022-09-06T01:40:39.725Z,15.86
2022-09-06T01:41:39.724Z,15.84
2022-09-06T01:42:39.715Z,15.82
2022-09-06T01:43:39.732Z,15.82
2022-09-06T01:44:39.698Z,15.83
2022-09-06T01:45:39.691Z,15.83
2022-09-06T01:46:39.761Z,15.79
2022-09-06T01:47:39.676Z,15.70
2022-09-06T01:48:39.693Z,15.77
2022-09-06T01:49:39.665Z,15.70
2022-09-06T01:50:39.653Z,15.83
2022-09-06T01:51:39.643Z,15.80
2022-09-06T01:52:39.637Z,15.73
2022-09-06T01:53:39.653Z,15.75
2022-09-06T01:54:39.620Z,15.64
2022-09-06T01:55:39.613Z,15.64
2022-09-06T01:56:39.603Z,15.67
2022-09-06T01:57:39.598Z,15.67
2022-09-06T01:58:39.617Z,15.68
2022-09-06T01:59:39.585Z,15.67
2022-09-06T02:00:39.583Z,15.64
2022-09-06T02:01:39.664Z,15.65
2022-09-06T02:02:39.643Z,15.58
2022-09-06T02:03:39.544Z,15.65
2022-09-06T02:04:40.569Z,15.62
2022-09-06T02:05:39.536Z,15.65
2022-09-06T02:06:39.531Z,15.67
2022-09-06T02:07:39.522Z,15.67
2022-09-06T02:08:39.513Z,15.67
2022-09-06T02:09:39.531Z,15.61
2022-09-06T02:10:39.499Z,15.59
2022-09-06T02:11:39.510Z,15.62
2022-09-06T02:12:39.483Z,15.58
2022-09-06T02:13:39.474Z,15.59
2022-09-06T02:14:39.498Z,15.55
2022-09-06T02:15:39.461Z,15.59
2022-09-06T02:16:39.543Z,15.52
2022-09-06T02:17:39.445Z,15.59
2022-09-06T02:18:39.444Z,15.51
2022-09-06T02:19:39.464Z,15.51
2022-09-06T02:20:39.422Z,15.57
2022-09-06T02:21:39.419Z,15.61
2022-09-06T02:22:39.395Z,15.52
2022-09-06T02:23:40.415Z,15.55
2022-09-06T02:24:39.419Z,15.57
2022-09-06T02:25:40.390Z,15.58
2022-09-06T02:26:39.378Z,15.58
2022-09-06T02:27:39.371Z,15.54
2022-09-06T02:28:39.365Z,15.61
2022-09-06T02:29:39.381Z,15.58
2022-09-06T02:30:39.403Z,15.59
2022-09-06T02:31:39.331Z,15.59
2022-09-06T02:32:40.332Z,15.52
2022-09-06T02:33:39.322Z,15.59
2022-09-06T02:34:39.339Z,15.55
2022-09-06T02:35:39.308Z,15.59
2022-09-06T02:36:39.307Z,15.59
2022-09-06T02:37:39.293Z,15.61
2022-09-06T02:38:39.286Z,15.58
2022-09-06T02:39:39.323Z,15.54
2022-09-06T02:40:39.268Z,15.62
2022-09-06T02:41:39.260Z,15.62
2022-09-06T02:42:39.253Z,15.55
2022-09-06T02:43:39.246Z,15.47
2022-09-06T02:44:39.252Z,15.49
2022-09-06T02:45:40.282Z,15.55
2022-09-06T02:46:39.227Z,15.49
2022-09-06T02:47:39.214Z,15.52
2022-09-06T02:48:39.201Z,15.47
2022-09-06T02:49:39.217Z,15.55
2022-09-06T02:50:39.183Z,15.49
2022-09-06T02:51:39.180Z,15.55
2022-09-06T02:52:39.167Z,15.47
2022-09-06T02:53:39.167Z,15.52
2022-09-06T02:54:39.187Z,15.37
2022-09-06T02:55:39.143Z,15.55
2022-09-06T02:56:40.153Z,15.29
2022-09-06T02:57:39.128Z,15.49
2022-09-06T02:58:39.123Z,15.54
2022-09-06T02:59:39.139Z,15.46
2022-09-06T03:00:39.102Z,15.40
2022-09-06T03:01:39.169Z,15.44
2022-09-06T03:02:39.135Z,15.52
2022-09-06T03:03:39.086Z,15.52
2022-09-06T03:04:39.102Z,15.54
2022-09-06T03:05:39.071Z,15.49
2022-09-06T03:06:39.058Z,15.51
2022-09-06T03:07:39.051Z,15.43
2022-09-06T03:08:39.042Z,15.44
2022-09-06T03:09:39.062Z,15.49
2022-09-06T03:10:39.038Z,15.51
2022-09-06T03:11:39.022Z,15.42
2022-09-06T03:12:39.014Z,15.49
2022-09-06T03:13:39.005Z,15.51
2022-09-06T03:14:39.022Z,15.54
2022-09-06T03:15:38.987Z,15.54
2022-09-06T03:16:39.045Z,15.54
2022-09-06T03:17:38.977Z,15.64
2022-09-06T03:18:38.963Z,15.52
2022-09-06T03:19:38.976Z,15.57
2022-09-06T03:20:38.954Z,15.61
2022-09-06T03:21:38.945Z,15.61
2022-09-06T03:22:38.931Z,15.58
2022-09-06T03:23:38.915Z,15.62
2022-09-06T03:24:39.937Z,15.57
2022-09-06T03:25:38.904Z,15.68
2022-09-06T03:26:38.896Z,15.65
2022-09-06T03:27:38.895Z,15.64
2022-09-06T03:28:38.882Z,15.68
2022-09-06T03:29:38.898Z,15.75
2022-09-06T03:30:38.982Z,15.73
2022-09-06T03:31:38.859Z,15.80
2022-09-06T03:32:38.858Z,15.73
2022-09-06T03:33:38.843Z,15.72
2022-09-06T03:34:38.833Z,15.70
2022-09-06T03:35:38.841Z,15.62
2022-09-06T03:36:39.816Z,15.67
2022-09-06T03:37:38.805Z,15.64
2022-09-06T03:38:38.808Z,15.72
2022-09-06T03:39:38.864Z,15.70
2022-09-06T03:40:38.809Z,15.64
2022-09-06T03:41:38.778Z,15.64
2022-09-06T03:42:38.770Z,15.76
2022-09-06T03:43:38.763Z,15.64
2022-09-06T03:44:38.755Z,15.82
2022-09-06T03:45:38.825Z,15.76
2022-09-06T03:46:38.738Z,15.73
2022-09-06T03:47:38.731Z,15.72
2022-09-06T03:48:38.725Z,15.67
2022-09-06T03:49:38.716Z,15.70
2022-09-06T03:50:38.733Z,15.75
2022-09-06T03:51:38.700Z,15.76
2022-09-06T03:52:38.696Z,15.67
2022-09-06T03:53:38.688Z,15.76
2022-09-06T03:54:38.679Z,15.80
2022-09-06T03:55:38.702Z,15.75
2022-09-06T03:56:38.667Z,15.70
2022-09-06T03:57:38.659Z,15.73
2022-09-06T03:58:38.647Z,15.70
2022-09-06T03:59:38.639Z,15.68
2022-09-06T04:00:38.655Z,15.79
2022-09-06T04:01:38.691Z,15.80
2022-09-06T04:02:38.648Z,15.80
2022-09-06T04:03:38.604Z,15.67
2022-09-06T04:04:38.598Z,15.75
2022-09-06T04:05:38.614Z,15.79
2022-09-06T04:06:38.579Z,15.79
2022-09-06T04:07:38.570Z,15.75
2022-09-06T04:08:38.563Z,15.82
2022-09-06T04:09:38.554Z,15.82
2022-09-06T04:10:38.576Z,15.76
2022-09-06T04:11:38.541Z,15.82
2022-09-06T04:12:38.532Z,15.84
2022-09-06T04:13:38.523Z,15.90
2022-09-06T04:14:38.521Z,15.79
2022-09-06T04:15:38.538Z,15.79
2022-09-06T04:16:38.548Z,15.84
2022-09-06T04:17:38.497Z,15.88
2022-09-06T04:18:38.494Z,15.82
2022-09-06T04:19:38.477Z,15.92
2022-09-06T04:20:38.495Z,15.86
2022-09-06T04:21:38.466Z,15.88
2022-09-06T04:22:38.454Z,15.82
2022-09-06T04:23:40.102Z,15.82
2022-09-06T04:24:39.441Z,15.77
2022-09-06T04:25:38.456Z,15.68
2022-09-06T04:26:38.424Z,15.61
2022-09-06T04:27:38.417Z,15.72
2022-09-06T04:28:38.406Z,15.75
2022-09-06T04:29:38.400Z,15.65
2022-09-06T04:30:38.415Z,15.75
2022-09-06T04:31:38.447Z,15.75
2022-09-06T04:32:38.376Z,15.84
2022-09-06T04:33:38.376Z,15.88
2022-09-06T04:34:38.359Z,15.80
2022-09-06T04:35:38.377Z,15.73
2022-09-06T04:36:38.365Z,15.84
2022-09-06T04:37:38.334Z,15.84
2022-09-06T04:38:38.333Z,15.94
2022-09-06T04:39:38.361Z,15.80
2022-09-06T04:40:38.333Z,15.88
2022-09-06T04:41:38.304Z,15.88
2022-09-06T04:42:38.298Z,15.75
2022-09-06T04:43:38.290Z,15.91
2022-09-06T04:44:38.280Z,15.83
2022-09-06T04:45:38.359Z,15.92
2022-09-06T04:46:38.274Z,15.94
2022-09-06T04:47:38.259Z,16.00
2022-09-06T04:48:38.251Z,16.13
2022-09-06T04:49:38.242Z,16.09
2022-09-06T04:50:38.259Z,16.13
2022-09-06T04:51:38.225Z,16.13
2022-09-06T04:52:38.241Z,16.16
2022-09-06T04:53:38.218Z,16.16
2022-09-06T04:54:38.205Z,16.16
2022-09-06T04:55:38.256Z,16.15
2022-09-06T04:56:38.191Z,16.10
2022-09-06T04:57:42.024Z,16.26
2022-09-06T04:58:40.175Z,16.23
2022-09-06T04:59:38.177Z,16.32
2022-09-06T05:00:38.251Z,16.36
2022-09-06T05:01:38.163Z,16.41
2022-09-06T05:02:38.174Z,16.39
2022-09-06T05:03:38.138Z,16.42
2022-09-06T05:04:38.135Z,16.46
2022-09-06T05:05:38.147Z,16.46
2022-09-06T05:06:38.118Z,16.43
2022-09-06T05:07:38.106Z,16.42
2022-09-06T05:08:38.101Z,16.35
2022-09-06T05:09:38.104Z,16.31
2022-09-06T05:10:38.109Z,16.29
2022-09-06T05:11:38.082Z,16.32
2022-09-06T05:12:42.082Z,16.35
2022-09-06T05:13:40.062Z,16.35
2022-09-06T05:14:38.055Z,16.46
2022-09-06T05:15:38.052Z,16.26
2022-09-06T05:16:38.210Z,16.09
2022-09-06T05:17:38.031Z,16.12
2022-09-06T05:18:38.026Z,16.15
2022-09-06T05:19:38.022Z,16.21
2022-09-06T05:20:38.007Z,16.36
2022-09-06T05:21:38.030Z,16.39
2022-09-06T05:22:37.996Z,16.35
2022-09-06T05:23:37.988Z,16.36
2022-09-06T05:24:37.987Z,16.43
2022-09-06T05:25:37.970Z,16.47
2022-09-06T05:26:37.989Z,16.49
2022-09-06T05:27:37.955Z,16.53
2022-09-06T05:28:37.953Z,16.57
2022-09-06T05:29:37.937Z,16.58
2022-09-06T05:30:37.928Z,16.56
2022-09-06T05:31:37.986Z,16.61
2022-09-06T05:32:37.914Z,16.53
2022-09-06T05:33:37.906Z,16.61
2022-09-06T05:34:37.902Z,16.53
2022-09-06T05:35:37.889Z,16.56
2022-09-06T05:36:37.903Z,16.60
2022-09-06T05:37:37.874Z,16.61
2022-09-06T05:38:37.865Z,16.65
2022-09-06T05:39:37.978Z,16.56
2022-09-06T05:40:37.852Z,16.57
2022-09-06T05:41:37.866Z,16.69
2022-09-06T05:42:37.835Z,16.79
2022-09-06T05:43:37.829Z,16.83
2022-09-06T05:44:37.815Z,16.97
2022-09-06T05:45:37.837Z,17.05
2022-09-06T05:46:37.825Z,17.15
2022-09-06T05:47:37.795Z,17.19
2022-09-06T05:48:38.026Z,17.33
2022-09-06T05:49:37.778Z,17.29
2022-09-06T05:50:37.765Z,17.45
2022-09-06T05:51:37.789Z,17.48
2022-09-06T05:52:37.760Z,17.74
2022-09-06T05:53:37.752Z,17.87
2022-09-06T05:54:38.087Z,18.15
2022-09-06T05:55:42.302Z,18.31
2022-09-06T05:56:39.746Z,18.38
2022-09-06T05:57:37.715Z,18.52
2022-09-06T05:58:37.704Z,18.37
2022-09-06T05:59:37.694Z,18.38
2022-09-06T06:00:37.688Z,18.52
2022-09-06T06:01:37.745Z,18.63
2022-09-06T06:02:37.763Z,19.22
2022-09-06T06:03:37.667Z,19.16
2022-09-06T06:04:37.668Z,19.24
2022-09-06T06:05:37.653Z,19.15
2022-09-06T06:06:37.668Z,19.11
2022-09-06T06:07:37.636Z,19.24
2022-09-06T06:08:37.631Z,19.15
2022-09-06T06:09:37.623Z,19.12
2022-09-06T06:10:38.683Z,19.12
2022-09-06T06:11:38.635Z,19.21
2022-09-06T06:12:37.605Z,19.33
2022-09-06T06:13:37.589Z,19.55
2022-09-06T06:14:37.585Z,19.74
2022-09-06T06:15:37.580Z,20.04
2022-09-06T06:16:37.635Z,21.15
2022-09-06T06:17:37.559Z,22.14
2022-09-06T06:18:37.562Z,23.34
2022-09-06T06:19:37.551Z,24.20
2022-09-06T06:20:37.541Z,24.08
2022-09-06T06:21:37.559Z,23.80
2022-09-06T06:22:37.531Z,23.95
2022-09-06T06:23:37.521Z,23.68
2022-09-06T06:24:37.534Z,23.86
2022-09-06T06:25:37.502Z,23.44
2022-09-06T06:26:37.515Z,23.24
2022-09-06T06:27:37.486Z,22.84
2022-09-06T06:28:37.477Z,22.50
2022-09-06T06:29:37.471Z,22.18
2022-09-06T06:30:37.469Z,21.98
2022-09-06T06:31:37.546Z,21.82
2022-09-06T06:32:37.446Z,21.67
2022-09-06T06:33:37.445Z,21.46
2022-09-06T06:34:37.432Z,21.35
2022-09-06T06:35:40.155Z,21.42
2022-09-06T06:36:38.452Z,21.22
2022-09-06T06:37:37.434Z,21.06
2022-09-06T06:38:37.412Z,21.02
2022-09-06T06:39:37.414Z,21.02
2022-09-06T06:40:37.383Z,20.93
2022-09-06T06:41:37.406Z,20.99
2022-09-06T06:42:37.367Z,20.88
2022-09-06T06:43:37.359Z,20.97
2022-09-06T06:44:37.362Z,21.02
2022-09-06T06:45:37.426Z,21.02
2022-09-06T06:46:37.364Z,21.11
2022-09-06T06:47:37.331Z,21.20
2022-09-06T06:48:37.323Z,21.22
2022-09-06T06:49:37.319Z,21.27
2022-09-06T06:50:37.369Z,21.29
2022-09-06T06:51:37.326Z,21.29
2022-09-06T06:52:37.318Z,21.27
2022-09-06T06:53:37.287Z,21.17
2022-09-06T06:54:37.278Z,21.14
2022-09-06T06:55:37.267Z,21.17
2022-09-06T06:56:37.307Z,21.03
2022-09-06T06:57:37.254Z,21.12
2022-09-06T06:58:37.253Z,21.17
2022-09-06T06:59:37.236Z,21.15
2022-09-06T07:00:37.282Z,21.05
2022-09-06T07:01:37.356Z,21.05
2022-09-06T07:02:37.212Z,21.05
2022-09-06T07:03:37.207Z,20.95
2022-09-06T07:04:37.199Z,20.92
2022-09-06T07:07:41.030Z,20.77
2022-09-06T07:08:37.162Z,20.70
2022-09-06T07:10:39.147Z,20.62
2022-09-06T07:11:37.167Z,20.52
2022-09-06T07:12:37.132Z,20.58
2022-09-06T07:13:37.125Z,20.48
2022-09-06T07:14:37.114Z,20.52
2022-09-06T07:15:37.107Z,20.41
2022-09-06T07:16:37.268Z,20.52
2022-09-06T07:17:37.089Z,20.59
2022-09-06T07:18:37.086Z,20.62
2022-09-06T07:21:39.213Z,20.85
2022-09-06T07:22:37.051Z,20.92
2022-09-06T07:24:39.030Z,21.06
2022-09-06T07:25:37.020Z,21.18
2022-09-06T07:26:37.561Z,21.14
2022-09-06T07:27:52.340Z,21.35
2022-09-06T07:28:39.004Z,21.48
2022-09-06T07:29:36.992Z,21.61
2022-09-06T07:30:36.983Z,21.66
2022-09-06T07:32:39.003Z,21.75
2022-09-06T07:33:36.973Z,21.83
2022-09-06T07:34:36.951Z,21.88
2022-09-06T07:35:36.945Z,21.96
2022-09-06T07:36:36.936Z,22.04
2022-09-06T07:37:36.951Z,22.06
2022-09-06T07:38:36.918Z,22.13
2022-09-06T07:39:36.989Z,22.23
2022-09-06T07:40:36.909Z,22.22
2022-09-06T07:41:36.894Z,22.38
2022-09-06T07:42:37.014Z,22.32
2022-09-06T07:43:36.878Z,22.45
2022-09-06T07:44:36.872Z,22.62
2022-09-06T07:45:36.865Z,22.65
2022-09-06T07:46:36.879Z,22.90
2022-09-06T07:48:38.839Z,23.06
2022-09-06T07:49:36.834Z,23.21
2022-09-06T07:50:54.658Z,23.41
2022-09-06T07:51:38.816Z,23.59
2022-09-06T07:53:38.799Z,24.73
2022-09-06T07:54:36.796Z,24.80
2022-09-06T07:55:36.792Z,25.11
2022-09-06T07:56:36.780Z,25.38
2022-09-06T07:57:36.799Z,25.70
2022-09-06T07:58:36.778Z,25.66
2022-09-06T07:59:39.996Z,25.73
2022-09-06T08:00:38.786Z,26.23
2022-09-06T08:01:36.744Z,26.25
2022-09-06T08:02:36.763Z,26.62
2022-09-06T08:03:36.738Z,26.38
2022-09-06T08:04:36.717Z,26.31
2022-09-06T08:07:39.021Z,26.05
2022-09-06T08:09:38.682Z,26.02
2022-09-06T08:10:36.676Z,25.88
2022-09-06T08:11:36.665Z,25.83
2022-09-06T08:12:36.681Z,26.06
2022-09-06T08:13:36.650Z,27.36
2022-09-06T08:14:36.640Z,27.67
2022-09-06T08:15:36.634Z,27.54
2022-09-06T08:16:36.649Z,27.96
2022-09-06T08:17:36.645Z,27.85
2022-09-06T08:18:36.611Z,27.27
2022-09-06T08:19:36.604Z,26.75
2022-09-06T08:20:36.599Z,26.44
2022-09-06T08:21:36.588Z,26.26
2022-09-06T08:22:36.607Z,26.21
2022-09-06T08:23:36.575Z,26.16
2022-09-06T08:24:36.563Z,26.34
2022-09-06T08:25:37.559Z,26.40
2022-09-06T08:26:36.556Z,26.25
2022-09-06T08:27:36.577Z,26.25
2022-09-06T08:28:36.539Z,26.26
2022-09-06T08:29:36.534Z,26.15
2022-09-06T08:30:36.531Z,25.87
2022-09-06T08:31:36.558Z,25.84
2022-09-06T08:32:36.536Z,25.75
2022-09-06T08:33:36.512Z,25.70
2022-09-06T08:34:36.503Z,25.55
2022-09-06T08:35:36.493Z,25.53
2022-09-06T08:36:36.482Z,25.59
2022-09-06T08:37:36.524Z,25.54
2022-09-06T08:38:36.473Z,25.43
2022-09-06T08:39:36.522Z,25.43
2022-09-06T08:40:36.468Z,25.48
2022-09-06T08:41:36.448Z,25.58
2022-09-06T08:42:36.492Z,25.60
2022-09-06T08:43:36.436Z,25.69
2022-09-06T08:45:38.415Z,25.70
2022-09-06T08:46:36.462Z,25.83
2022-09-06T08:47:36.430Z,25.91
2022-09-06T08:48:36.394Z,25.85
2022-09-06T08:49:36.386Z,25.93
2022-09-06T08:50:36.385Z,25.90
2022-09-06T08:51:38.366Z,26.18
2022-09-06T08:52:41.779Z,26.51
2022-09-06T08:53:38.359Z,26.52
2022-09-06T08:54:36.349Z,26.47
2022-09-06T08:55:36.344Z,26.51
2022-09-06T08:56:36.337Z,26.56
2022-09-06T08:57:40.091Z,26.58
2022-09-06T08:58:37.349Z,26.60
2022-09-06T08:59:36.320Z,26.53
2022-09-06T09:00:36.358Z,26.63
2022-09-06T09:01:36.332Z,26.68
2022-09-06T09:02:36.294Z,26.75
2022-09-06T09:03:36.311Z,26.88
2022-09-06T09:04:36.281Z,26.85
2022-09-06T09:05:36.272Z,26.83
2022-09-06T09:06:36.264Z,27.25
2022-09-06T09:07:36.258Z,27.35
2022-09-06T09:08:36.282Z,27.55
2022-09-06T09:09:36.247Z,28.39
2022-09-06T09:10:36.236Z,29.20
2022-09-06T09:11:36.386Z,29.39
2022-09-06T09:12:36.220Z,30.05
2022-09-06T09:13:36.238Z,30.88
2022-09-06T09:14:36.204Z,31.00
2022-09-06T09:15:40.255Z,30.81
2022-09-06T09:16:37.293Z,30.90
2022-09-06T09:17:36.180Z,31.03
2022-09-06T09:18:36.200Z,31.18
2022-09-06T09:19:36.171Z,30.92
2022-09-06T09:20:36.162Z,30.78
2022-09-06T09:21:36.160Z,30.90
2022-09-06T09:22:36.152Z,31.05
2022-09-06T09:23:36.167Z,31.07
2022-09-06T09:24:36.177Z,30.69
2022-09-06T09:25:36.136Z,30.61
2022-09-06T09:26:36.117Z,30.59
2022-09-06T09:27:36.109Z,30.27
2022-09-06T09:28:36.171Z,30.02
2022-09-06T09:29:36.561Z,29.87
2022-09-06T09:30:52.524Z,29.76
2022-09-06T09:31:38.151Z,29.60
2022-09-06T09:32:36.076Z,29.26
2022-09-06T09:33:36.100Z,29.08
2022-09-06T09:34:36.061Z,28.86
2022-09-06T09:35:36.043Z,28.91
2022-09-06T09:36:37.067Z,28.84
2022-09-06T09:38:38.059Z,28.41
2022-09-06T09:39:36.133Z,28.42
2022-09-06T09:40:36.029Z,28.41
2022-09-06T09:41:36.012Z,28.48
2022-09-06T09:42:36.010Z,28.49
2022-09-06T09:43:36.025Z,28.82
2022-09-06T09:44:35.993Z,28.79
2022-09-06T09:45:36.007Z,29.19
2022-09-06T09:46:36.051Z,29.63
2022-09-06T09:47:35.977Z,30.02
2022-09-06T09:48:35.996Z,30.34
2022-09-06T09:49:35.962Z,30.50
2022-09-06T09:50:35.953Z,30.77
2022-09-06T09:51:35.950Z,30.99
2022-09-06T09:52:35.938Z,31.42
2022-09-06T09:53:35.958Z,31.40
2022-09-06T09:54:35.931Z,31.49
2022-09-06T09:55:35.921Z,31.29
2022-09-06T09:56:35.913Z,31.15
2022-09-06T09:57:35.908Z,30.80
2022-09-06T09:58:35.922Z,30.44
2022-09-06T09:59:35.894Z,30.31
2022-09-06T10:00:35.942Z,30.06
2022-09-06T10:01:35.873Z,29.87
2022-09-06T10:02:35.939Z,29.65
2022-09-06T10:04:44.420Z,29.57
2022-09-06T10:05:37.860Z,29.61
2022-09-06T10:07:37.838Z,29.22
2022-09-06T10:08:35.860Z,28.88
2022-09-06T10:09:35.816Z,28.42
2022-09-06T10:10:35.855Z,28.14
2022-09-06T10:11:35.805Z,28.22
2022-09-06T10:12:35.801Z,28.26
2022-09-06T10:13:35.788Z,28.49
2022-09-06T10:14:35.807Z,28.54
2022-09-06T10:15:35.777Z,28.72
2022-09-06T10:16:35.850Z,28.94
2022-09-06T10:17:35.760Z,29.14
2022-09-06T10:18:35.754Z,29.10
2022-09-06T10:19:35.774Z,28.97
2022-09-06T10:20:35.734Z,29.07
2022-09-06T10:21:35.733Z,29.20
2022-09-06T10:22:35.721Z,29.24
2022-09-06T10:24:37.732Z,29.23
2022-09-06T10:25:35.699Z,29.23
2022-09-06T10:26:35.690Z,29.36
2022-09-06T10:27:36.090Z,29.42
2022-09-06T10:28:35.673Z,29.50
2022-09-06T10:29:35.688Z,29.45
2022-09-06T10:30:35.659Z,29.54
2022-09-06T10:31:35.706Z,29.60
2022-09-06T10:32:35.646Z,29.66
2022-09-06T10:33:35.649Z,29.66
2022-09-06T10:34:35.656Z,29.71
2022-09-06T10:35:35.624Z,29.68
2022-09-06T10:36:35.616Z,29.60
2022-09-06T10:37:35.613Z,29.59
2022-09-06T10:38:35.601Z,29.65
2022-09-06T10:39:35.640Z,29.61
2022-09-06T10:40:35.590Z,29.65
2022-09-06T10:41:35.590Z,29.47
2022-09-06T10:42:35.577Z,29.59
2022-09-06T10:43:35.566Z,29.51
2022-09-06T10:44:35.583Z,29.61
2022-09-06T10:45:35.580Z,29.71
2022-09-06T10:46:35.588Z,29.68
2022-09-06T10:47:35.540Z,29.81
2022-09-06T10:48:35.529Z,29.71
2022-09-06T10:49:35.547Z,29.73
2022-09-06T10:50:35.520Z,29.72
2022-09-06T10:51:35.511Z,29.76
2022-09-06T10:52:35.497Z,29.75
2022-09-06T10:53:35.500Z,29.76
2022-09-06T10:54:35.511Z,29.75
2022-09-06T10:55:35.480Z,29.76
2022-09-06T10:56:35.476Z,29.72
2022-09-06T10:59:38.418Z,29.93
2022-09-06T11:00:35.446Z,30.02
2022-09-06T11:01:35.507Z,29.76
2022-09-06T11:02:35.826Z,29.72
2022-09-06T11:06:36.402Z,30.05
2022-09-06T11:07:35.540Z,29.94
2022-09-06T11:08:53.245Z,30.13
2022-09-06T11:09:37.403Z,30.18
2022-09-06T11:10:35.368Z,30.30
2022-09-06T11:11:35.368Z,30.39
2022-09-06T11:12:35.374Z,30.39
2022-09-06T11:13:35.348Z,30.40
2022-09-06T11:14:35.363Z,30.32
2022-09-06T11:15:35.362Z,30.44
2022-09-06T11:16:35.324Z,30.51
2022-09-06T11:17:35.329Z,30.54
2022-09-06T11:18:35.313Z,30.54
2022-09-06T11:19:35.328Z,30.51
2022-09-06T11:20:35.295Z,30.55
2022-09-06T11:21:35.288Z,30.72
2022-09-06T11:22:35.280Z,30.66
2022-09-06T11:23:35.273Z,30.59
2022-09-06T11:24:35.295Z,30.70
2022-09-06T11:25:35.263Z,30.68
2022-09-06T11:26:35.250Z,30.46
2022-09-06T11:27:35.248Z,30.32
2022-09-06T11:28:35.244Z,30.16
2022-09-06T11:29:35.257Z,29.97
2022-09-06T11:30:35.252Z,29.91
2022-09-06T11:32:37.206Z,30.18
2022-09-06T11:33:35.231Z,30.24
2022-09-06T11:34:35.194Z,30.39
2022-09-06T11:35:35.208Z,30.44
2022-09-06T11:36:35.180Z,30.62
2022-09-06T11:37:35.171Z,30.70
2022-09-06T11:38:35.213Z,30.77
2022-09-06T11:40:37.157Z,30.59
2022-09-06T11:41:35.145Z,30.34
2022-09-06T11:42:35.140Z,30.19
2022-09-06T11:43:35.118Z,30.16
2022-09-06T11:44:36.148Z,30.21
2022-09-06T11:45:35.115Z,30.34
2022-09-06T11:46:35.133Z,30.54
2022-09-06T11:47:35.099Z,30.68
2022-09-06T11:48:35.117Z,30.87
2022-09-06T11:49:35.111Z,30.83
2022-09-06T11:50:35.795Z,31.05
2022-09-06T11:51:35.072Z,31.14
2022-09-06T11:52:35.062Z,31.21
2022-09-06T11:53:35.058Z,31.27
2022-09-06T11:54:35.073Z,31.44
2022-09-06T11:55:35.041Z,31.56
2022-09-06T11:56:35.036Z,31.64
2022-09-06T11:57:35.026Z,31.56
2022-09-06T11:58:35.065Z,31.62
2022-09-06T11:59:35.080Z,31.51
2022-09-06T12:00:35.006Z,31.51
2022-09-06T12:01:35.004Z,31.40
2022-09-06T12:02:35.092Z,31.43
2022-09-06T12:04:37.114Z,31.59
2022-09-06T12:05:34.969Z,31.64
2022-09-06T12:06:34.978Z,31.56
2022-09-06T12:07:34.957Z,31.56
2022-09-06T12:08:34.945Z,31.55
2022-09-06T12:09:34.969Z,31.59
2022-09-06T12:10:34.929Z,31.59
2022-09-06T12:11:34.927Z,31.54
2022-09-06T12:12:34.920Z,31.54
2022-09-06T12:13:34.910Z,31.54
2022-09-06T12:14:34.926Z,31.46
2022-09-06T12:15:34.953Z,31.59
2022-09-06T12:16:34.890Z,31.58
2022-09-06T12:17:34.923Z,31.55
2022-09-06T12:18:34.939Z,31.51
2022-09-06T12:19:34.900Z,31.40
2022-09-06T12:20:34.906Z,31.40
2022-09-06T12:21:34.854Z,31.55
2022-09-06T12:22:34.860Z,31.40
2022-09-06T12:23:34.877Z,31.51
2022-09-06T12:24:34.862Z,31.58
2022-09-06T12:25:34.819Z,31.66
2022-09-06T12:26:34.817Z,31.76
2022-09-06T12:27:34.812Z,31.85
2022-09-06T12:28:34.938Z,31.93
2022-09-06T12:29:34.794Z,31.84
2022-09-06T12:30:34.815Z,31.90
2022-09-06T12:31:34.839Z,31.71
2022-09-06T12:32:37.048Z,31.59
2022-09-06T12:33:35.762Z,31.46
2022-09-06T12:34:34.753Z,31.58
2022-09-06T12:36:36.745Z,31.70
2022-09-06T12:37:34.738Z,31.66
2022-09-06T12:38:34.735Z,31.66
2022-09-06T12:39:34.830Z,31.84
2022-09-06T12:40:34.738Z,31.96
2022-09-06T12:41:34.710Z,31.96
2022-09-06T12:42:34.697Z,32.00
2022-09-06T12:43:34.693Z,32.08
2022-09-06T12:44:34.706Z,32.08
2022-09-06T12:45:34.673Z,32.26
2022-09-06T12:46:34.686Z,32.12
2022-09-06T12:47:34.667Z,32.09
2022-09-06T12:48:34.657Z,32.18
2022-09-06T12:49:34.714Z,31.96
2022-09-06T12:50:34.651Z,32.04
2022-09-06T12:51:34.634Z,32.11
2022-09-06T12:52:34.624Z,32.15
2022-09-06T12:53:34.621Z,32.01
2022-09-06T12:54:34.652Z,32.01
2022-09-06T12:55:34.616Z,32.14
2022-09-06T12:56:34.597Z,32.09
2022-09-06T12:57:34.595Z,32.27
2022-09-06T12:58:34.584Z,32.37
2022-09-06T12:59:34.605Z,32.27
2022-09-06T13:00:34.567Z,32.40
2022-09-06T13:01:34.747Z,32.46
2022-09-06T13:02:35.799Z,32.38
2022-09-06T13:03:34.549Z,32.49
2022-09-06T13:04:34.564Z,32.58
2022-09-06T13:05:34.527Z,32.51
2022-09-06T13:06:35.526Z,32.30
2022-09-06T13:07:34.521Z,32.22
2022-09-06T13:08:34.515Z,32.31
2022-09-06T13:09:34.529Z,32.37
2022-09-06T13:10:34.501Z,32.38
2022-09-06T13:11:34.497Z,32.30
2022-09-06T13:12:34.484Z,32.08
2022-09-06T13:13:34.473Z,31.99
2022-09-06T13:14:34.491Z,31.76
2022-09-06T13:15:34.520Z,31.76
2022-09-06T13:16:34.455Z,31.81
2022-09-06T13:17:34.451Z,31.74
2022-09-06T13:18:34.437Z,31.71